createdAt,value
2024-01-06T00:00:32.310Z,8.40
2024-01-06T00:03:35.998Z,7.93
2024-01-06T00:06:38.900Z,8.48
2024-01-06T00:09:41.998Z,8.10
2024-01-06T00:12:45.503Z,7.55
2024-01-06T00:15:48.917Z,9.20
2024-01-06T00:18:52.192Z,8.98
2024-01-06T00:21:55.183Z,8.43
2024-01-06T00:24:58.032Z,7.97
2024-01-06T00:28:01.115Z,7.30
2024-01-06T00:31:04.569Z,7.88
2024-01-06T00:34:08.123Z,7.00
2024-01-06T00:37:11.365Z,8.43
2024-01-06T00:40:14.588Z,8.47
2024-01-06T00:43:17.809Z,9.10
2024-01-06T00:46:20.889Z,8.50
2024-01-06T00:49:24.109Z,8.45
2024-01-06T00:52:26.974Z,8.98
2024-01-06T00:55:32.880Z,8.40
2024-01-06T00:58:36.007Z,8.15
2024-01-06T01:01:38.890Z,9.48
2024-01-06T01:04:42.361Z,8.80
2024-01-06T01:07:45.540Z,8.70
2024-01-06T01:10:48.707Z,8.37
2024-01-06T01:13:52.082Z,8.70
2024-01-06T01:16:55.164Z,9.52
2024-01-06T01:19:58.288Z,9.45
2024-01-06T01:23:01.374Z,8.80
2024-01-06T01:26:04.565Z,8.37
2024-01-06T01:29:07.410Z,7.35
2024-01-06T01:32:10.295Z,8.02
2024-01-06T01:35:13.472Z,8.60
2024-01-06T01:38:16.621Z,7.63
2024-01-06T01:41:19.896Z,8.27
2024-01-06T01:44:23.030Z,8.35
2024-01-06T01:47:26.820Z,8.55
2024-01-06T01:50:32.214Z,8.15
2024-01-06T01:53:35.326Z,9.23
2024-01-06T01:56:40.976Z,9.27
2024-01-06T01:59:44.021Z,8.57
2024-01-06T02:02:47.529Z,8.40
2024-01-06T02:05:50.478Z,8.98
2024-01-06T02:08:53.718Z,8.50
2024-01-06T02:11:59.691Z,8.77
2024-01-06T02:15:02.576Z,10.30
2024-01-06T02:18:06.152Z,10.35
2024-01-06T02:21:12.709Z,8.05
2024-01-06T02:24:15.593Z,8.43
2024-01-06T02:27:18.837Z,9.13
2024-01-06T02:30:21.876Z,8.70
2024-01-06T02:33:25.633Z,8.43
2024-01-06T02:36:28.712Z,8.80
2024-01-06T02:39:31.837Z,8.70
2024-01-06T02:42:35.027Z,8.57
2024-01-06T02:45:38.235Z,8.25
2024-01-06T02:48:41.453Z,8.80
2024-01-06T02:51:44.418Z,9.32
2024-01-06T02:54:47.608Z,8.90
2024-01-06T02:57:50.465Z,10.27
2024-01-06T03:00:53.699Z,7.85
2024-01-06T03:03:56.944Z,8.10
2024-01-06T03:07:00.029Z,8.55
2024-01-06T03:10:03.831Z,8.35
2024-01-06T03:13:08.894Z,8.83
2024-01-06T03:16:13.417Z,9.00
2024-01-06T03:19:16.712Z,8.25
2024-01-06T03:22:19.844Z,8.43
2024-01-06T03:25:22.990Z,9.77
2024-01-06T03:28:26.088Z,8.30
2024-01-06T03:31:28.913Z,8.70
2024-01-06T03:34:32.228Z,8.93
2024-01-06T03:37:35.741Z,9.23
2024-01-06T03:40:38.845Z,7.18
2024-01-06T03:43:41.854Z,8.17
2024-01-06T03:46:44.989Z,9.23
2024-01-06T03:49:48.237Z,8.90
2024-01-06T03:52:51.354Z,8.95
2024-01-06T03:55:54.475Z,8.18
2024-01-06T03:58:57.588Z,9.43
2024-01-06T04:02:00.731Z,8.82
2024-01-06T04:05:06.285Z,9.18
2024-01-06T04:08:09.596Z,8.27
2024-01-06T04:11:12.626Z,8.95
2024-01-06T04:14:15.408Z,9.30
2024-01-06T04:17:18.479Z,9.55
2024-01-06T04:20:21.776Z,8.98
2024-01-06T04:23:26.446Z,8.95
2024-01-06T04:26:29.758Z,8.50
2024-01-06T04:29:33.053Z,9.70
2024-01-06T04:32:36.197Z,9.35
2024-01-06T04:35:39.353Z,10.02
2024-01-06T04:38:42.567Z,9.73
2024-01-06T04:41:45.479Z,10.13
2024-01-06T04:44:48.565Z,8.37
2024-01-06T04:47:52.252Z,9.43
2024-01-06T04:50:55.425Z,9.43
2024-01-06T04:53:58.276Z,9.93
2024-01-06T04:57:01.152Z,9.07
2024-01-06T05:00:05.628Z,10.27
2024-01-06T05:03:09.616Z,8.80
2024-01-06T05:06:13.288Z,9.43
2024-01-06T05:09:16.258Z,9.05
2024-01-06T05:12:19.145Z,9.23
2024-01-06T05:15:22.496Z,8.77
2024-01-06T05:18:25.849Z,8.27
2024-01-06T05:21:29.923Z,8.63
2024-01-06T05:24:33.036Z,8.50
2024-01-06T05:27:36.528Z,7.95
2024-01-06T05:30:39.934Z,9.13
2024-01-06T05:33:43.824Z,9.80
2024-01-06T05:36:47.211Z,10.02
2024-01-06T05:39:50.317Z,9.43
2024-01-06T05:42:56.761Z,8.77
2024-01-06T05:45:59.697Z,9.37
2024-01-06T05:49:02.995Z,9.57
2024-01-06T05:52:06.304Z,10.90
2024-01-06T05:55:10.220Z,10.85
2024-01-06T05:58:13.512Z,10.52
2024-01-06T06:01:17.976Z,9.33
2024-01-06T06:04:22.154Z,9.68
2024-01-06T06:07:25.393Z,9.85
2024-01-06T06:10:41.634Z,8.75
2024-01-06T06:13:44.694Z,10.63
2024-01-06T06:16:49.095Z,9.70
2024-01-06T06:19:52.369Z,10.32
2024-01-06T06:22:55.396Z,9.90
2024-01-06T06:25:58.576Z,10.57
2024-01-06T06:29:02.521Z,10.35
2024-01-06T06:32:05.611Z,8.87
2024-01-06T06:35:09.105Z,10.13
2024-01-06T06:38:12.304Z,10.25
2024-01-06T06:41:15.111Z,9.40
2024-01-06T06:44:18.315Z,10.65
2024-01-06T06:47:21.719Z,9.53
2024-01-06T06:50:24.860Z,8.63
2024-01-06T06:53:28.163Z,9.95
2024-01-06T06:56:30.959Z,8.77
2024-01-06T06:59:34.108Z,9.75
2024-01-06T07:02:38.080Z,10.67
2024-01-06T07:05:41.321Z,10.73
2024-01-06T07:08:44.220Z,8.70
2024-01-06T07:11:46.992Z,10.00
2024-01-06T07:14:49.901Z,10.85
2024-01-06T07:17:53.237Z,10.33
2024-01-06T07:20:56.193Z,11.18
2024-01-06T07:23:59.295Z,10.10
2024-01-06T07:27:02.215Z,10.20
2024-01-06T07:30:06.106Z,9.52
2024-01-06T07:33:10.249Z,9.00
2024-01-06T07:36:13.210Z,8.93
2024-01-06T07:39:16.403Z,9.40
2024-01-06T07:42:19.573Z,11.27
2024-01-06T07:45:23.194Z,10.48
2024-01-06T07:48:26.500Z,9.97
2024-01-06T07:51:29.965Z,9.80
2024-01-06T07:54:33.106Z,10.48
2024-01-06T07:57:36.314Z,8.82
2024-01-06T08:00:39.351Z,10.85
2024-01-06T08:03:42.605Z,8.63
2024-01-06T08:06:45.835Z,8.73
2024-01-06T08:09:48.772Z,9.02
2024-01-06T08:12:52.062Z,9.18
2024-01-06T08:15:55.235Z,9.55
2024-01-06T08:18:58.418Z,9.77
2024-01-06T08:22:01.726Z,9.18
2024-01-06T08:25:07.560Z,10.20
2024-01-06T08:28:10.932Z,9.48
2024-01-06T08:31:13.802Z,10.43
2024-01-06T08:34:16.882Z,8.03
2024-01-06T08:37:19.804Z,8.98
2024-01-06T08:40:22.692Z,10.10
2024-01-06T08:43:25.882Z,9.65
2024-01-06T08:46:29.185Z,9.45
2024-01-06T08:49:32.542Z,8.63
2024-01-06T08:52:36.206Z,9.65
2024-01-06T08:55:39.339Z,10.02
2024-01-06T08:58:42.456Z,11.35
2024-01-06T09:01:47.295Z,8.70
2024-01-06T09:04:51.878Z,8.93
2024-01-06T09:07:55.916Z,8.55
2024-01-06T09:10:59.768Z,9.30
2024-01-06T09:14:02.854Z,9.30
2024-01-06T09:17:05.958Z,9.30
2024-01-06T09:20:09.476Z,8.43
2024-01-06T09:23:12.551Z,10.30
2024-01-06T09:26:17.698Z,10.30
2024-01-06T09:29:20.883Z,10.00
2024-01-06T09:32:24.363Z,8.82
2024-01-06T09:35:27.529Z,9.17
2024-01-06T09:38:30.436Z,8.85
2024-01-06T09:41:33.341Z,9.32
2024-01-06T09:44:36.292Z,9.18
2024-01-06T09:47:42.250Z,9.70
2024-01-06T09:50:48.586Z,10.43
2024-01-06T09:54:02.796Z,9.68
2024-01-06T09:57:07.400Z,8.20
2024-01-06T10:00:11.263Z,9.10
2024-01-06T10:03:17.651Z,9.73
2024-01-06T10:06:21.994Z,10.03
2024-01-06T10:09:29.950Z,10.52
2024-01-06T10:12:33.614Z,10.75
2024-01-06T10:15:37.693Z,10.60
2024-01-06T10:18:40.784Z,9.38
2024-01-06T10:21:45.227Z,8.77
2024-01-06T10:24:51.238Z,9.20
2024-01-06T10:27:54.492Z,10.95
2024-01-06T10:30:58.813Z,10.60
2024-01-06T10:34:01.956Z,10.55
2024-01-06T10:37:05.042Z,9.40
2024-01-06T10:40:13.481Z,10.15
2024-01-06T10:43:17.334Z,10.57
2024-01-06T10:46:20.988Z,10.57
2024-01-06T10:49:26.248Z,10.43
2024-01-06T10:52:29.670Z,8.13
2024-01-06T10:55:33.546Z,9.52
2024-01-06T10:58:43.870Z,10.00
2024-01-06T11:01:48.236Z,8.68
2024-01-06T11:04:51.820Z,10.13
2024-01-06T11:08:00.936Z,9.60
2024-01-06T11:11:05.685Z,10.00
2024-01-06T11:14:34.275Z,8.55
2024-01-06T11:17:57.487Z,10.73
2024-01-06T11:21:13.954Z,9.00
2024-01-06T11:24:25.797Z,9.17
2024-01-06T11:27:32.650Z,10.27
2024-01-06T11:31:10.351Z,9.23
2024-01-06T11:34:16.116Z,9.85
2024-01-06T11:37:21.536Z,8.85
2024-01-06T11:40:25.806Z,8.60
2024-01-06T11:43:28.669Z,9.52
2024-01-06T11:46:31.596Z,8.30
2024-01-06T11:49:35.247Z,10.57
2024-01-06T11:52:41.191Z,9.48
2024-01-06T11:55:44.532Z,10.10
2024-01-06T11:58:47.746Z,9.52
2024-01-06T12:01:50.942Z,10.02
2024-01-06T12:04:55.031Z,9.27
2024-01-06T12:08:03.955Z,9.18
2024-01-06T12:11:08.710Z,8.63
2024-01-06T12:14:12.167Z,9.52
2024-01-06T12:17:15.501Z,9.10
2024-01-06T12:20:18.313Z,8.45
2024-01-06T12:23:29.138Z,9.27
2024-01-06T12:26:32.582Z,8.73
2024-01-06T12:29:39.174Z,9.50
2024-01-06T12:32:42.301Z,9.30
2024-01-06T12:35:47.089Z,9.45
2024-01-06T12:38:50.473Z,10.35
2024-01-06T12:41:53.270Z,8.63
2024-01-06T12:44:56.440Z,9.43
2024-01-06T12:47:59.577Z,8.82
2024-01-06T12:51:02.403Z,7.72
2024-01-06T12:54:05.530Z,8.00
2024-01-06T12:57:09.021Z,9.03
2024-01-06T13:00:13.422Z,8.13
2024-01-06T13:03:16.843Z,8.23
2024-01-06T13:06:20.331Z,10.07
2024-01-06T13:09:25.240Z,7.72
2024-01-06T13:12:30.313Z,8.83
2024-01-06T13:15:33.622Z,7.90
2024-01-06T13:18:37.007Z,9.05
2024-01-06T13:21:40.660Z,7.72
2024-01-06T13:24:43.576Z,8.45
2024-01-06T13:27:46.698Z,7.57
2024-01-06T13:30:50.726Z,8.40
2024-01-06T13:33:53.993Z,7.72
2024-01-06T13:36:58.581Z,7.30
2024-01-06T13:40:01.627Z,7.85
2024-01-06T13:43:06.375Z,7.50
2024-01-06T13:46:09.402Z,8.80
2024-01-06T13:49:13.291Z,8.75
2024-01-06T13:52:16.650Z,7.90
2024-01-06T13:55:19.939Z,7.32
2024-01-06T13:58:23.071Z,8.50
2024-01-06T14:01:26.206Z,7.13
2024-01-06T14:04:29.179Z,5.95
2024-01-06T14:07:32.115Z,7.88
2024-01-06T14:10:35.192Z,8.50
2024-01-06T14:13:38.106Z,6.63
2024-01-06T14:16:41.439Z,8.13
2024-01-06T14:19:48.161Z,8.20
2024-01-06T14:22:51.517Z,8.63
2024-01-06T14:25:54.790Z,7.68
2024-01-06T14:28:59.068Z,7.47
2024-01-06T14:32:02.189Z,8.63
2024-01-06T14:35:07.810Z,8.88
2024-01-06T14:38:11.275Z,8.55
2024-01-06T14:41:14.367Z,9.57
2024-01-06T14:44:23.678Z,10.53
2024-01-06T14:47:26.577Z,8.70
2024-01-06T14:50:29.683Z,9.52
2024-01-06T14:53:32.837Z,7.43
2024-01-06T14:56:39.900Z,7.60
2024-01-06T14:59:44.390Z,6.67
2024-01-06T15:02:48.044Z,6.78
2024-01-06T15:05:51.216Z,7.15
2024-01-06T15:08:54.923Z,6.60
2024-01-06T15:11:57.762Z,6.40
2024-01-06T15:15:00.663Z,6.10
2024-01-06T15:18:04.036Z,7.28
2024-01-06T15:21:07.159Z,6.95
2024-01-06T15:24:10.628Z,6.47
2024-01-06T15:27:13.551Z,7.47
2024-01-06T15:30:17.449Z,7.20
2024-01-06T15:33:20.856Z,6.65
2024-01-06T15:36:24.086Z,7.18
2024-01-06T15:39:27.017Z,7.22
2024-01-06T15:42:30.563Z,7.38
2024-01-06T15:45:33.854Z,6.47
2024-01-06T15:48:37.768Z,7.03
2024-01-06T15:51:41.654Z,6.45
2024-01-06T15:54:44.545Z,6.13
2024-01-06T15:57:47.857Z,5.03
2024-01-06T16:00:50.972Z,6.70
2024-01-06T16:03:53.966Z,5.30
2024-01-06T16:06:56.896Z,6.80
2024-01-06T16:09:59.920Z,6.30
2024-01-06T16:13:03.371Z,6.43
2024-01-06T16:16:08.636Z,6.50
2024-01-06T16:19:11.798Z,5.53
2024-01-06T16:22:17.952Z,4.70
2024-01-06T16:25:21.483Z,5.90
2024-01-06T16:28:24.638Z,6.07
2024-01-06T16:31:28.428Z,5.00
2024-01-06T16:34:31.477Z,5.43
2024-01-06T16:37:34.379Z,5.85
2024-01-06T16:40:37.207Z,7.82
2024-01-06T16:43:40.400Z,7.53
2024-01-06T16:46:43.656Z,5.10
2024-01-06T16:49:46.896Z,5.47
2024-01-06T16:52:50.148Z,4.75
2024-01-06T16:55:53.176Z,5.60
2024-01-06T16:58:56.338Z,4.45
2024-01-06T17:02:00.094Z,5.33
2024-01-06T17:05:03.584Z,5.10
2024-01-06T17:08:07.141Z,4.07
2024-01-06T17:11:10.558Z,5.22
2024-01-06T17:14:15.349Z,4.60
2024-01-06T17:17:18.485Z,5.73
2024-01-06T17:20:21.545Z,5.13
2024-01-06T17:23:25.912Z,6.15
2024-01-06T17:26:29.127Z,5.25
2024-01-06T17:29:31.961Z,5.93
2024-01-06T17:32:34.982Z,6.00
2024-01-06T17:35:38.277Z,5.43
2024-01-06T17:38:41.628Z,6.28
2024-01-06T17:41:52.899Z,5.18
2024-01-06T17:45:00.724Z,5.50
2024-01-06T17:48:04.665Z,5.67
2024-01-06T17:51:07.819Z,4.72
2024-01-06T17:54:11.512Z,4.93
2024-01-06T17:57:19.212Z,5.13
2024-01-06T18:00:23.321Z,5.95
2024-01-06T18:03:26.535Z,5.37
2024-01-06T18:06:30.206Z,5.13
2024-01-06T18:09:33.268Z,6.68
2024-01-06T18:12:37.717Z,4.63
2024-01-06T18:15:40.725Z,5.15
2024-01-06T18:18:44.019Z,5.90
2024-01-06T18:21:47.593Z,6.05
2024-01-06T18:24:50.789Z,6.00
2024-01-06T18:27:53.856Z,5.97
2024-01-06T18:30:57.000Z,6.07
2024-01-06T18:34:00.635Z,7.03
2024-01-06T18:37:03.819Z,8.82
2024-01-06T18:40:07.424Z,8.27
2024-01-06T18:43:10.510Z,11.73
2024-01-06T18:46:13.448Z,9.63
2024-01-06T18:49:17.479Z,11.30
2024-01-06T18:52:21.676Z,7.68
2024-01-06T18:55:24.957Z,7.15
2024-01-06T18:58:28.156Z,4.93
2024-01-06T19:01:32.460Z,5.35
2024-01-06T19:04:35.740Z,3.90
2024-01-06T19:07:39.003Z,3.83
2024-01-06T19:10:42.169Z,4.40
2024-01-06T19:13:46.068Z,3.95
2024-01-06T19:16:49.278Z,4.63
2024-01-06T19:19:52.445Z,4.23
2024-01-06T19:23:02.941Z,3.15
2024-01-06T19:26:12.332Z,6.38
2024-01-06T19:29:15.167Z,6.07
2024-01-06T19:32:19.112Z,8.05
2024-01-06T19:35:22.030Z,5.80
2024-01-06T19:38:25.474Z,5.90
2024-01-06T19:41:29.587Z,5.35
2024-01-06T19:44:32.849Z,3.90
2024-01-06T19:47:36.122Z,3.85
2024-01-06T19:50:39.242Z,3.63
2024-01-06T19:53:42.237Z,4.57
2024-01-06T19:56:45.430Z,8.30
2024-01-06T19:59:50.876Z,6.72
2024-01-06T20:02:54.463Z,6.15
2024-01-06T20:05:57.624Z,4.43
2024-01-06T20:09:00.962Z,4.03
2024-01-06T20:12:04.274Z,3.92
2024-01-06T20:15:10.936Z,3.53
2024-01-06T20:18:15.141Z,4.88
2024-01-06T20:21:18.629Z,4.77
2024-01-06T20:24:22.034Z,3.38
2024-01-06T20:27:25.277Z,4.43
2024-01-06T20:30:28.586Z,4.20
2024-01-06T20:33:34.866Z,3.83
2024-01-06T20:36:38.847Z,2.90
2024-01-06T20:39:42.194Z,2.53
2024-01-06T20:42:45.446Z,3.08
2024-01-06T20:45:50.223Z,2.95
2024-01-06T20:48:54.446Z,3.42
2024-01-06T20:51:58.532Z,3.87
2024-01-06T20:55:02.529Z,3.67
2024-01-06T20:58:05.649Z,4.22
2024-01-06T21:01:08.821Z,3.50
2024-01-06T21:04:11.898Z,2.80
2024-01-06T21:07:15.220Z,2.93
2024-01-06T21:10:18.651Z,2.63
2024-01-06T21:13:21.697Z,4.05
2024-01-06T21:16:25.792Z,4.10
2024-01-06T21:19:29.685Z,4.18
2024-01-06T21:22:35.081Z,4.00
2024-01-06T21:25:39.490Z,4.00
2024-01-06T21:28:42.584Z,4.35
2024-01-06T21:31:45.672Z,4.97
2024-01-06T21:34:48.646Z,4.32
2024-01-06T21:37:51.547Z,4.80
2024-01-06T21:40:54.456Z,4.32
2024-01-06T21:43:58.259Z,5.28
2024-01-06T21:47:04.144Z,4.82
2024-01-06T21:50:09.415Z,5.53
2024-01-06T21:53:12.970Z,5.23
2024-01-06T21:56:15.836Z,4.32
2024-01-06T21:59:20.902Z,5.18
2024-01-06T22:02:23.865Z,5.35
2024-01-06T22:05:28.361Z,5.28
2024-01-06T22:08:31.502Z,4.77
2024-01-06T22:11:39.306Z,4.38
2024-01-06T22:14:43.588Z,4.25
2024-01-06T22:17:46.646Z,4.55
2024-01-06T22:20:49.529Z,3.95
2024-01-06T22:23:55.904Z,5.10
2024-01-06T22:26:59.058Z,3.92
2024-01-06T22:30:01.873Z,4.05
2024-01-06T22:33:05.494Z,3.05
2024-01-06T22:36:12.955Z,3.13
2024-01-06T22:39:20.412Z,2.50
2024-01-06T22:42:23.670Z,2.03
2024-01-06T22:45:29.281Z,2.60
2024-01-06T22:48:33.658Z,3.28
2024-01-06T22:51:37.243Z,2.58
2024-01-06T22:54:41.526Z,3.10
2024-01-06T22:57:44.613Z,2.00
2024-01-06T23:00:47.794Z,2.90
2024-01-06T23:03:51.040Z,3.22
2024-01-06T23:06:55.217Z,2.38
2024-01-06T23:09:58.301Z,2.80
2024-01-06T23:13:01.449Z,2.90
2024-01-06T23:16:04.946Z,2.13
2024-01-06T23:19:08.263Z,2.75
2024-01-06T23:22:11.563Z,2.47
2024-01-06T23:25:15.939Z,2.50
2024-01-06T23:28:22.604Z,2.63
2024-01-06T23:31:25.798Z,2.83
2024-01-06T23:34:38.349Z,2.22
2024-01-06T23:37:49.079Z,2.50
2024-01-06T23:40:52.150Z,2.33
2024-01-06T23:43:55.270Z,2.00
2024-01-06T23:46:58.457Z,2.22
2024-01-06T23:50:03.090Z,2.17
2024-01-06T23:53:06.501Z,2.60
2024-01-06T23:56:09.672Z,1.73
2024-01-06T23:59:13.954Z,2.25
